sensor_id;sensor_type;location;lat;lon;timestamp;pressure;altitude;pressure_sealevel;temperature;humidity
57068;BME280;43391;47.448;18.904;2022-09-09T00:01:44;99452.94;;;16.16;100.00
57068;BME280;43391;47.448;18.904;2022-09-09T00:04:16;99441.03;;;16.12;100.00
57068;BME280;43391;47.448;18.904;2022-09-09T00:15:25;99468.16;;;15.99;100.00
57068;BME280;43391;47.448;18.904;2022-09-09T00:18:07;99467.28;;;15.99;100.00
57068;BME280;43391;47.448;18.904;2022-09-09T00:20:52;99455.75;;;16.01;100.00
57068;BME280;43391;47.448;18.904;2022-09-09T00:23:27;99457.66;;;15.99;100.00
57068;BME280;43391;47.448;18.904;2022-09-09T00:28:50;99457.25;;;15.92;100.00
57068;BME280;43391;47.448;18.904;2022-09-09T00:31:25;99454.91;;;15.89;100.00
57068;BME280;43391;47.448;18.904;2022-09-09T00:33:53;99454.41;;;15.84;100.00
57068;BME280;43391;47.448;18.904;2022-09-09T00:36:21;99456.19;;;15.84;100.00
57068;BME280;43391;47.448;18.904;2022-09-09T00:38:57;99458.09;;;15.81;100.00
57068;BME280;43391;47.448;18.904;2022-09-09T00:46:59;99460.22;;;15.76;100.00
57068;BME280;43391;47.448;18.904;2022-09-09T00:57:29;99464.84;;;15.73;100.00
57068;BME280;43391;47.448;18.904;2022-09-09T01:05:25;99472.56;;;15.74;100.00
57068;BME280;43391;47.448;18.904;2022-09-09T01:07:52;99476.88;;;15.75;100.00
57068;BME280;43391;47.448;18.904;2022-09-09T01:10:56;99476.47;;;15.68;100.00
57068;BME280;43391;47.448;18.904;2022-09-09T01:13:33;99473.88;;;15.68;100.00
57068;BME280;43391;47.448;18.904;2022-09-09T01:16:01;99479.22;;;15.67;100.00
57068;BME280;43391;47.448;18.904;2022-09-09T01:18:51;99480.06;;;15.67;100.00
57068;BME280;43391;47.448;18.904;2022-09-09T01:25:08;99492.19;;;15.68;100.00
57068;BME280;43391;47.448;18.904;2022-09-09T01:27:23;99497.72;;;15.64;100.00
57068;BME280;43391;47.448;18.904;2022-09-09T01:29:50;99491.69;;;15.63;100.00
57068;BME280;43391;47.448;18.904;2022-09-09T01:35:08;99496.19;;;15.61;100.00
57068;BME280;43391;47.448;18.904;2022-09-09T01:37:35;99488.22;;;15.63;100.00
57068;BME280;43391;47.448;18.904;2022-09-09T01:40:01;99498.69;;;15.63;100.00
57068;BME280;43391;47.448;18.904;2022-09-09T01:42:26;99502.72;;;15.56;100.00
57068;BME280;43391;47.448;18.904;2022-09-09T01:44:51;99506.78;;;15.60;100.00
57068;BME280;43391;47.448;18.904;2022-09-09T01:47:17;99513.78;;;15.59;100.00
57068;BME280;43391;47.448;18.904;2022-09-09T01:49:42;99513.16;;;15.56;100.00
57068;BME280;43391;47.448;18.904;2022-09-09T01:52:08;99508.91;;;15.54;100.00
57068;BME280;43391;47.448;18.904;2022-09-09T01:54:34;99514.84;;;15.57;100.00
57068;BME280;43391;47.448;18.904;2022-09-09T01:57:11;99506.28;;;15.54;100.00
57068;BME280;43391;47.448;18.904;2022-09-09T02:02:30;99501.25;;;15.51;100.00
57068;BME280;43391;47.448;18.904;2022-09-09T02:05:08;99501.97;;;15.53;100.00
57068;BME280;43391;47.448;18.904;2022-09-09T02:07:43;99500.19;;;15.54;100.00
57068;BME280;43391;47.448;18.904;2022-09-09T02:10:17;99498.19;;;15.58;100.00
57068;BME280;43391;47.448;18.904;2022-09-09T02:12:47;99496.63;;;15.55;100.00
57068;BME280;43391;47.448;18.904;2022-09-09T02:15:26;99495.81;;;15.54;100.00
57068;BME280;43391;47.448;18.904;2022-09-09T02:17:57;99495.19;;;15.51;100.00
57068;BME280;43391;47.448;18.904;2022-09-09T02:20:24;99502.31;;;15.49;100.00
57068;BME280;43391;47.448;18.904;2022-09-09T02:22:53;99494.47;;;15.49;100.00
57068;BME280;43391;47.448;18.904;2022-09-09T02:25:21;99493.31;;;15.53;100.00
57068;BME280;43391;47.448;18.904;2022-09-09T02:27:50;99496.03;;;15.51;100.00
57068;BME280;43391;47.448;18.904;2022-09-09T02:30:16;99489.25;;;15.49;100.00
57068;BME280;43391;47.448;18.904;2022-09-09T02:32:43;99491.97;;;15.47;100.00
57068;BME280;43391;47.448;18.904;2022-09-09T02:35:15;99492.19;;;15.44;100.00
57068;BME280;43391;47.448;18.904;2022-09-09T02:37:42;99493.34;;;15.40;100.00
57068;BME280;43391;47.448;18.904;2022-09-09T02:40:10;99491.69;;;15.39;100.00
57068;BME280;43391;47.448;18.904;2022-09-09T02:42:40;99484.16;;;15.34;100.00
57068;BME280;43391;47.448;18.904;2022-09-09T02:45:07;99492.88;;;15.35;100.00
57068;BME280;43391;47.448;18.904;2022-09-09T02:47:55;99487.84;;;15.32;100.00
57068;BME280;43391;47.448;18.904;2022-09-09T02:50:34;99489.75;;;15.30;100.00
57068;BME280;43391;47.448;18.904;2022-09-09T02:53:20;99498.53;;;15.28;100.00
57068;BME280;43391;47.448;18.904;2022-09-09T02:55:51;99494.22;;;15.27;100.00
57068;BME280;43391;47.448;18.904;2022-09-09T02:58:20;99494.38;;;15.26;100.00
57068;BME280;43391;47.448;18.904;2022-09-09T03:00:47;99501.16;;;15.28;100.00
57068;BME280;43391;47.448;18.904;2022-09-09T03:03:13;99509.91;;;15.27;100.00
57068;BME280;43391;47.448;18.904;2022-09-09T03:05:41;99506.59;;;15.25;100.00
57068;BME280;43391;47.448;18.904;2022-09-09T03:08:07;99504.94;;;15.24;100.00
57068;BME280;43391;47.448;18.904;2022-09-09T03:10:32;99506.59;;;15.25;100.00
57068;BME280;43391;47.448;18.904;2022-09-09T03:12:58;99514.34;;;15.27;100.00
57068;BME280;43391;47.448;18.904;2022-09-09T03:15:23;99510.25;;;15.23;100.00
57068;BME280;43391;47.448;18.904;2022-09-09T03:17:49;99513.13;;;15.20;100.00
57068;BME280;43391;47.448;18.904;2022-09-09T03:20:14;99515.81;;;15.18;100.00
57068;BME280;43391;47.448;18.904;2022-09-09T03:22:40;99512.38;;;15.18;100.00
57068;BME280;43391;47.448;18.904;2022-09-09T03:25:06;99516.78;;;15.17;100.00
57068;BME280;43391;47.448;18.904;2022-09-09T03:27:31;99503.91;;;15.14;100.00
57068;BME280;43391;47.448;18.904;2022-09-09T03:29:57;99507.69;;;15.10;100.00
57068;BME280;43391;47.448;18.904;2022-09-09T03:32:23;99503.50;;;15.07;100.00
57068;BME280;43391;47.448;18.904;2022-09-09T03:34:51;99504.56;;;15.05;100.00
57068;BME280;43391;47.448;18.904;2022-09-09T03:37:17;99504.56;;;15.05;100.00
57068;BME280;43391;47.448;18.904;2022-09-09T03:39:43;99503.75;;;15.04;100.00
57068;BME280;43391;47.448;18.904;2022-09-09T03:42:09;99494.53;;;14.98;100.00
57068;BME280;43391;47.448;18.904;2022-09-09T03:44:37;99502.38;;;14.98;100.00
57068;BME280;43391;47.448;18.904;2022-09-09T03:47:03;99523.19;;;15.00;100.00
57068;BME280;43391;47.448;18.904;2022-09-09T03:49:28;99517.13;;;14.99;100.00
57068;BME280;43391;47.448;18.904;2022-09-09T03:51:57;99525.81;;;15.00;100.00
57068;BME280;43391;47.448;18.904;2022-09-09T03:54:24;99523.28;;;14.98;100.00
57068;BME280;43391;47.448;18.904;2022-09-09T03:56:49;99520.78;;;14.97;100.00
57068;BME280;43391;47.448;18.904;2022-09-09T03:59:15;99524.66;;;15.04;100.00
57068;BME280;43391;47.448;18.904;2022-09-09T04:01:41;99522.66;;;15.08;100.00
57068;BME280;43391;47.448;18.904;2022-09-09T04:04:06;99524.66;;;15.04;100.00
57068;BME280;43391;47.448;18.904;2022-09-09T04:06:32;99517.13;;;14.99;100.00
57068;BME280;43391;47.448;18.904;2022-09-09T04:08:58;99523.28;;;14.98;100.00
57068;BME280;43391;47.448;18.904;2022-09-09T04:11:23;99523.28;;;14.98;100.00
57068;BME280;43391;47.448;18.904;2022-09-09T04:13:49;99521.19;;;15.04;100.00
57068;BME280;43391;47.448;18.904;2022-09-09T04:16:15;99523.81;;;15.04;100.00
57068;BME280;43391;47.448;18.904;2022-09-09T04:18:41;99531.97;;;14.99;100.00
57068;BME280;43391;47.448;18.904;2022-09-09T04:21:08;99527.56;;;14.99;100.00
57068;BME280;43391;47.448;18.904;2022-09-09T04:23:33;99532.69;;;15.01;100.00
57068;BME280;43391;47.448;18.904;2022-09-09T04:26:00;99526.53;;;15.02;100.00
57068;BME280;43391;47.448;18.904;2022-09-09T04:28:29;99527.56;;;14.99;100.00
57068;BME280;43391;47.448;18.904;2022-09-09T04:30:56;99523.19;;;15.00;100.00
57068;BME280;43391;47.448;18.904;2022-09-09T04:33:23;99521.28;;;15.02;100.00
57068;BME280;43391;47.448;18.904;2022-09-09T04:35:50;99527.47;;;15.01;100.00
57068;BME280;43391;47.448;18.904;2022-09-09T04:38:16;99513.03;;;14.95;100.00
57068;BME280;43391;47.448;18.904;2022-09-09T04:40:49;99502.38;;;14.98;100.00
57068;BME280;43391;47.448;18.904;2022-09-09T04:43:15;99504.16;;;14.98;100.00
57068;BME280;43391;47.448;18.904;2022-09-09T04:45:46;99503.53;;;14.94;100.00
57068;BME280;43391;47.448;18.904;2022-09-09T04:48:12;99506.16;;;14.94;100.00
57068;BME280;43391;47.448;18.904;2022-09-09T04:50:38;99513.28;;;14.92;100.00
57068;BME280;43391;47.448;18.904;2022-09-09T04:53:04;99510.66;;;14.92;100.00
57068;BME280;43391;47.448;18.904;2022-09-09T04:55:30;99507.09;;;14.93;100.00
57068;BME280;43391;47.448;18.904;2022-09-09T04:57:56;99510.66;;;14.92;100.00
57068;BME280;43391;47.448;18.904;2022-09-09T05:00:22;99520.88;;;14.95;100.00
57068;BME280;43391;47.448;18.904;2022-09-09T05:02:48;99521.84;;;14.94;100.00
57068;BME280;43391;47.448;18.904;2022-09-09T05:05:13;99519.13;;;14.96;100.00
57068;BME280;43391;47.448;18.904;2022-09-09T05:07:39;99524.13;;;14.99;100.00
57068;BME280;43391;47.448;18.904;2022-09-09T05:10:04;99524.84;;;15.01;100.00
57068;BME280;43391;47.448;18.904;2022-09-09T05:12:31;99523.19;;;15.00;100.00
57068;BME280;43391;47.448;18.904;2022-09-09T05:14:57;99526.53;;;15.02;100.00
57068;BME280;43391;47.448;18.904;2022-09-09T05:17:23;99523.72;;;15.05;100.00
57068;BME280;43391;47.448;18.904;2022-09-09T05:19:48;99521.91;;;15.06;100.00
57068;BME280;43391;47.448;18.904;2022-09-09T05:22:18;99512.09;;;15.09;100.00
57068;BME280;43391;47.448;18.904;2022-09-09T05:24:45;99516.13;;;15.13;100.00
57068;BME280;43391;47.448;18.904;2022-09-09T05:27:11;99524.50;;;15.19;100.00
57068;BME280;43391;47.448;18.904;2022-09-09T05:29:37;99539.13;;;15.21;100.00
57068;BME280;43391;47.448;18.904;2022-09-09T05:32:03;99540.69;;;15.24;100.00
57068;BME280;43391;47.448;18.904;2022-09-09T05:34:28;99537.00;;;15.26;100.00
57068;BME280;43391;47.448;18.904;2022-09-09T05:36:54;99535.84;;;15.31;100.00
57068;BME280;43391;47.448;18.904;2022-09-09T05:39:19;99540.97;;;15.32;100.00
57068;BME280;43391;47.448;18.904;2022-09-09T05:41:45;99543.38;;;15.35;100.00
57068;BME280;43391;47.448;18.904;2022-09-09T05:44:10;99544.81;;;15.39;100.00
57068;BME280;43391;47.448;18.904;2022-09-09T05:46:35;99549.00;;;15.42;100.00
57068;BME280;43391;47.448;18.904;2022-09-09T05:49:01;99553.91;;;15.47;100.00
57068;BME280;43391;47.448;18.904;2022-09-09T05:51:28;99552.72;;;15.51;100.00
57068;BME280;43391;47.448;18.904;2022-09-09T05:53:55;99547.38;;;15.52;100.00
57068;BME280;43391;47.448;18.904;2022-09-09T05:56:25;99546.44;;;15.53;100.00
57068;BME280;43391;47.448;18.904;2022-09-09T05:58:52;99546.03;;;15.60;100.00
57068;BME280;43391;47.448;18.904;2022-09-09T06:01:30;99556.13;;;15.64;100.00
57068;BME280;43391;47.448;18.904;2022-09-09T06:03:56;99553.31;;;15.67;100.00
57068;BME280;43391;47.448;18.904;2022-09-09T06:06:24;99547.53;;;15.75;100.00
57068;BME280;43391;47.448;18.904;2022-09-09T06:08:52;99545.41;;;15.80;100.00
57068;BME280;43391;47.448;18.904;2022-09-09T06:11:20;99556.59;;;15.83;100.00
57068;BME280;43391;47.448;18.904;2022-09-09T06:13:46;99552.56;;;15.90;100.00
57068;BME280;43391;47.448;18.904;2022-09-09T06:16:15;99552.25;;;15.94;100.00
57068;BME280;43391;47.448;18.904;2022-09-09T06:18:41;99548.44;;;15.99;100.00
57068;BME280;43391;47.448;18.904;2022-09-09T06:21:11;99548.00;;;16.05;100.00
57068;BME280;43391;47.448;18.904;2022-09-09T06:23:39;99541.97;;;16.16;100.00
57068;BME280;43391;47.448;18.904;2022-09-09T06:28:38;99554.50;;;16.35;100.00
57068;BME280;43391;47.448;18.904;2022-09-09T06:31:06;99545.84;;;16.46;100.00
57068;BME280;43391;47.448;18.904;2022-09-09T06:33:37;99544.19;;;16.56;100.00
57068;BME280;43391;47.448;18.904;2022-09-09T06:36:07;99541.34;;;16.59;100.00
57068;BME280;43391;47.448;18.904;2022-09-09T06:38:35;99535.03;;;16.62;100.00
57068;BME280;43391;47.448;18.904;2022-09-09T06:41:00;99545.16;;;16.67;100.00
57068;BME280;43391;47.448;18.904;2022-09-09T06:43:27;99551.47;;;16.64;100.00
57068;BME280;43391;47.448;18.904;2022-09-09T06:46:00;99550.16;;;16.70;100.00
57068;BME280;43391;47.448;18.904;2022-09-09T06:48:27;99547.53;;;16.70;100.00
57068;BME280;43391;47.448;18.904;2022-09-09T06:51:05;99554.19;;;16.74;100.00
57068;BME280;43391;47.448;18.904;2022-09-09T06:53:33;99558.47;;;16.75;100.00
57068;BME280;43391;47.448;18.904;2022-09-09T06:56:00;99564.34;;;16.79;100.00
57068;BME280;43391;47.448;18.904;2022-09-09T06:58:27;99560.16;;;16.76;100.00
57068;BME280;43391;47.448;18.904;2022-09-09T07:01:04;99567.56;;;16.71;100.00
57068;BME280;43391;47.448;18.904;2022-09-09T07:03:30;99574.94;;;16.66;100.00
57068;BME280;43391;47.448;18.904;2022-09-09T07:05:56;99575.41;;;16.59;100.00
57068;BME280;43391;47.448;18.904;2022-09-09T07:08:22;99580.50;;;16.50;100.00
57068;BME280;43391;47.448;18.904;2022-09-09T07:10:47;99577.16;;;16.47;100.00
57068;BME280;43391;47.448;18.904;2022-09-09T07:13:13;99573.00;;;16.68;100.00
57068;BME280;43391;47.448;18.904;2022-09-09T07:15:41;99564.56;;;16.87;100.00
57068;BME280;43391;47.448;18.904;2022-09-09T07:18:07;99565.19;;;17.02;100.00
57068;BME280;43391;47.448;18.904;2022-09-09T07:20:32;99569.59;;;17.13;100.00
57068;BME280;43391;47.448;18.904;2022-09-09T07:22:57;99567.31;;;17.20;100.00
57068;BME280;43391;47.448;18.904;2022-09-09T07:25:24;99562.16;;;17.30;100.00
57068;BME280;43391;47.448;18.904;2022-09-09T07:27:53;99567.41;;;17.41;100.00
57068;BME280;43391;47.448;18.904;2022-09-09T07:30:18;99571.22;;;17.48;100.00
57068;BME280;43391;47.448;18.904;2022-09-09T07:32:44;99571.06;;;17.61;100.00
57068;BME280;43391;47.448;18.904;2022-09-09T07:35:10;99565.78;;;17.73;100.00
57068;BME280;43391;47.448;18.904;2022-09-09T07:37:36;99577.75;;;17.87;100.00
57068;BME280;43391;47.448;18.904;2022-09-09T07:40:03;99579.66;;;17.96;100.00
57068;BME280;43391;47.448;18.904;2022-09-09T07:42:28;99585.44;;;18.11;100.00
57068;BME280;43391;47.448;18.904;2022-09-09T07:44:54;99585.25;;;18.24;100.00
57068;BME280;43391;47.448;18.904;2022-09-09T07:47:20;99579.94;;;18.36;99.91
57068;BME280;43391;47.448;18.904;2022-09-09T07:49:46;99584.19;;;18.48;100.00
57068;BME280;43391;47.448;18.904;2022-09-09T07:52:11;99583.13;;;18.61;99.93
57068;BME280;43391;47.448;18.904;2022-09-09T07:54:37;99581.41;;;18.71;98.32
57068;BME280;43391;47.448;18.904;2022-09-09T07:57:03;99577.53;;;18.75;95.56
57068;BME280;43391;47.448;18.904;2022-09-09T07:59:29;99581.47;;;18.81;94.47
57068;BME280;43391;47.448;18.904;2022-09-09T08:01:55;99579.28;;;18.96;96.77
57068;BME280;43391;47.448;18.904;2022-09-09T08:04:23;99578.53;;;19.05;94.38
57068;BME280;43391;47.448;18.904;2022-09-09T08:06:51;99581.31;;;19.14;94.91
57068;BME280;43391;47.448;18.904;2022-09-09T08:09:18;99572.19;;;19.18;91.69
57068;BME280;43391;47.448;18.904;2022-09-09T08:11:44;99576.09;;;19.23;90.82
57068;BME280;43391;47.448;18.904;2022-09-09T08:14:10;99575.00;;;19.36;91.36
57068;BME280;43391;47.448;18.904;2022-09-09T08:16:39;99583.06;;;19.44;91.79
57068;BME280;43391;47.448;18.904;2022-09-09T08:19:05;99574.63;;;19.60;92.76
57068;BME280;43391;47.448;18.904;2022-09-09T08:21:33;99575.22;;;19.74;91.71
57068;BME280;43391;47.448;18.904;2022-09-09T08:24:00;99580.22;;;19.87;91.07
57068;BME280;43391;47.448;18.904;2022-09-09T08:26:34;99580.22;;;20.07;90.15
57068;BME280;43391;47.448;18.904;2022-09-09T08:29:02;99577.16;;;20.21;88.91
57068;BME280;43391;47.448;18.904;2022-09-09T08:31:32;99578.28;;;20.28;86.56
57068;BME280;43391;47.448;18.904;2022-09-09T08:33:59;99579.63;;;20.42;88.40
57068;BME280;43391;47.448;18.904;2022-09-09T08:36:27;99576.81;;;20.54;85.25
57068;BME280;43391;47.448;18.904;2022-09-09T08:38:54;99581.09;;;20.65;82.20
57068;BME280;43391;47.448;18.904;2022-09-09T08:52:25;99597.88;;;21.11;78.47
57068;BME280;43391;47.448;18.904;2022-09-09T08:54:55;99592.09;;;21.26;76.73
57068;BME280;43391;47.448;18.904;2022-09-09T08:57:26;99590.91;;;21.38;75.48
57068;BME280;43391;47.448;18.904;2022-09-09T08:59:54;99587.09;;;21.51;73.99
57068;BME280;43391;47.448;18.904;2022-09-09T09:02:58;99590.19;;;21.64;73.71
57068;BME280;43391;47.448;18.904;2022-09-09T09:05:34;99582.25;;;21.74;72.51
57068;BME280;43391;47.448;18.904;2022-09-09T09:10:48;99586.41;;;21.95;69.33
57068;BME280;43391;47.448;18.904;2022-09-09T09:13:20;99584.94;;;22.01;68.66
57068;BME280;43391;47.448;18.904;2022-09-09T09:15:52;99586.16;;;22.07;68.65
57068;BME280;43391;47.448;18.904;2022-09-09T09:18:19;99571.19;;;22.15;69.95
57068;BME280;43391;47.448;18.904;2022-09-09T09:20:56;99575.72;;;22.23;70.57
57068;BME280;43391;47.448;18.904;2022-09-09T09:23:26;99569.50;;;22.33;68.72
57068;BME280;43391;47.448;18.904;2022-09-09T09:25:59;99571.03;;;22.43;68.00
57068;BME280;43391;47.448;18.904;2022-09-09T09:28:28;99567.50;;;22.53;66.60
57068;BME280;43391;47.448;18.904;2022-09-09T09:30:59;99563.78;;;22.64;68.20
57068;BME280;43391;47.448;18.904;2022-09-09T09:36:07;99563.44;;;22.67;64.84
57068;BME280;43391;47.448;18.904;2022-09-09T09:38:34;99566.63;;;22.71;64.59
57068;BME280;43391;47.448;18.904;2022-09-09T09:41:00;99567.66;;;22.86;65.44
57068;BME280;43391;47.448;18.904;2022-09-09T09:43:37;99565.06;;;22.94;63.38
57068;BME280;43391;47.448;18.904;2022-09-09T09:46:05;99568.69;;;22.93;57.93
57068;BME280;43391;47.448;18.904;2022-09-09T09:48:43;99575.50;;;22.96;57.09
57068;BME280;43391;47.448;18.904;2022-09-09T09:51:10;99577.66;;;23.01;56.90
57068;BME280;43391;47.448;18.904;2022-09-09T09:53:39;99569.72;;;23.01;55.28
57068;BME280;43391;47.448;18.904;2022-09-09T10:01:04;99570.47;;;23.28;55.92
57068;BME280;43391;47.448;18.904;2022-09-09T10:03:33;99559.72;;;23.29;54.50
57068;BME280;43391;47.448;18.904;2022-09-09T10:06:03;99557.88;;;23.21;55.67
57068;BME280;43391;47.448;18.904;2022-09-09T10:08:29;99564.31;;;23.11;56.84
57068;BME280;43391;47.448;18.904;2022-09-09T10:19:32;99560.63;;;22.68;58.98
57068;BME280;43391;47.448;18.904;2022-09-09T10:24:51;99569.94;;;23.16;54.10
57068;BME280;43391;47.448;18.904;2022-09-09T10:30:56;99560.31;;;23.83;49.61
57068;BME280;43391;47.448;18.904;2022-09-09T10:38:40;99560.47;;;24.39;45.82
57068;BME280;43391;47.448;18.904;2022-09-09T10:41:13;99565.78;;;24.48;47.19
57068;BME280;43391;47.448;18.904;2022-09-09T10:46:57;99562.06;;;24.65;47.44
57068;BME280;43391;47.448;18.904;2022-09-09T10:52:29;99558.38;;;24.75;46.97
57068;BME280;43391;47.448;18.904;2022-09-09T10:55:17;99556.72;;;24.82;48.05
57068;BME280;43391;47.448;18.904;2022-09-09T11:00:24;99550.13;;;25.10;45.89
57068;BME280;43391;47.448;18.904;2022-09-09T11:03:01;99549.75;;;25.21;45.76
57068;BME280;43391;47.448;18.904;2022-09-09T11:05:38;99550.66;;;25.37;45.40
57068;BME280;43391;47.448;18.904;2022-09-09T11:08:13;99550.25;;;25.48;43.20
57068;BME280;43391;47.448;18.904;2022-09-09T11:10:58;99547.16;;;25.68;43.74
57068;BME280;43391;47.448;18.904;2022-09-09T11:16:28;99532.84;;;25.69;44.80
57068;BME280;43391;47.448;18.904;2022-09-09T11:19:01;99530.19;;;25.69;44.75
57068;BME280;43391;47.448;18.904;2022-09-09T11:21:35;99544.41;;;25.53;44.77
57068;BME280;43391;47.448;18.904;2022-09-09T11:24:08;99544.56;;;25.28;47.16
57068;BME280;43391;47.448;18.904;2022-09-09T11:35:33;99562.97;;;24.33;46.77
57068;BME280;43391;47.448;18.904;2022-09-09T11:38:25;99556.69;;;24.17;49.09
57068;BME280;43391;47.448;18.904;2022-09-09T11:41:03;99544.09;;;24.02;48.27
57068;BME280;43391;47.448;18.904;2022-09-09T11:43:45;99542.94;;;23.97;48.76
57068;BME280;43391;47.448;18.904;2022-09-09T11:46:13;99549.06;;;23.89;48.54
57068;BME280;43391;47.448;18.904;2022-09-09T11:48:57;99550.22;;;23.95;48.64
57068;BME280;43391;47.448;18.904;2022-09-09T11:51:28;99541.28;;;23.96;50.50
57068;BME280;43391;47.448;18.904;2022-09-09T11:53:58;99543.25;;;23.94;51.05
57068;BME280;43391;47.448;18.904;2022-09-09T11:56:30;99546.41;;;23.89;51.67
57068;BME280;43391;47.448;18.904;2022-09-09T12:01:44;99539.97;;;24.08;50.98
57068;BME280;43391;47.448;18.904;2022-09-09T12:06:45;99538.41;;;24.39;49.82
57068;BME280;43391;47.448;18.904;2022-09-09T12:09:18;99560.53;;;24.79;46.97
57068;BME280;43391;47.448;18.904;2022-09-09T12:11:44;99565.34;;;24.84;45.35
57068;BME280;43391;47.448;18.904;2022-09-09T12:14:35;99562.16;;;24.97;46.04
57068;BME280;43391;47.448;18.904;2022-09-09T12:17:19;99548.03;;;25.28;46.24
57068;BME280;43391;47.448;18.904;2022-09-09T12:19:45;99540.63;;;25.47;46.47
57068;BME280;43391;47.448;18.904;2022-09-09T12:24:55;99536.09;;;25.79;44.35
57068;BME280;43391;47.448;18.904;2022-09-09T12:27:30;99527.78;;;25.82;46.48
57068;BME280;43391;47.448;18.904;2022-09-09T12:30:11;99527.00;;;25.73;44.90
57068;BME280;43391;47.448;18.904;2022-09-09T12:32:39;99520.41;;;25.69;44.65
57068;BME280;43391;47.448;18.904;2022-09-09T12:35:22;99513.91;;;25.72;45.23
57068;BME280;43391;47.448;18.904;2022-09-09T12:37:53;99514.81;;;25.79;44.23
57068;BME280;43391;47.448;18.904;2022-09-09T12:42:47;99512.34;;;25.78;42.43
57068;BME280;43391;47.448;18.904;2022-09-09T12:45:21;99507.34;;;25.59;43.86
57068;BME280;43391;47.448;18.904;2022-09-09T12:50:26;99501.78;;;24.91;45.63
57068;BME280;43391;47.448;18.904;2022-09-09T12:52:58;99505.63;;;24.80;46.53
57068;BME280;43391;47.448;18.904;2022-09-09T12:55:29;99492.22;;;24.73;45.69
57068;BME280;43391;47.448;18.904;2022-09-09T12:57:56;99494.53;;;24.76;45.83
57068;BME280;43391;47.448;18.904;2022-09-09T13:00:24;99480.44;;;24.76;45.63
57068;BME280;43391;47.448;18.904;2022-09-09T13:02:54;99477.78;;;24.76;45.41
57068;BME280;43391;47.448;18.904;2022-09-09T13:05:28;99462.19;;;24.73;44.70
57068;BME280;43391;47.448;18.904;2022-09-09T13:08:05;99462.50;;;24.78;45.52
57068;BME280;43391;47.448;18.904;2022-09-09T13:10:36;99460.53;;;24.72;46.12
57068;BME280;43391;47.448;18.904;2022-09-09T13:13:11;99457.94;;;24.63;48.64
57068;BME280;43391;47.448;18.904;2022-09-09T13:15:38;99456.25;;;24.62;47.81
57068;BME280;43391;47.448;18.904;2022-09-09T13:18:07;99460.38;;;24.73;45.62
57068;BME280;43391;47.448;18.904;2022-09-09T13:20:36;99452.28;;;24.66;45.97
57068;BME280;43391;47.448;18.904;2022-09-09T13:23:03;99461.78;;;24.52;46.25
57068;BME280;43391;47.448;18.904;2022-09-09T13:25:29;99468.13;;;24.43;44.20
57068;BME280;43391;47.448;18.904;2022-09-09T13:28:03;99471.94;;;24.40;45.75
57068;BME280;43391;47.448;18.904;2022-09-09T13:30:34;99465.31;;;24.36;45.96
57068;BME280;43391;47.448;18.904;2022-09-09T13:35:56;99455.09;;;24.25;46.60
57068;BME280;43391;47.448;18.904;2022-09-09T13:38:22;99448.50;;;24.21;47.37
57068;BME280;43391;47.448;18.904;2022-09-09T13:41:06;99454.44;;;24.14;44.95
57068;BME280;43391;47.448;18.904;2022-09-09T13:43:53;99442.56;;;24.10;46.57
57068;BME280;43391;47.448;18.904;2022-09-09T13:46:34;99453.47;;;24.15;47.20
57068;BME280;43391;47.448;18.904;2022-09-09T13:51:42;99440.66;;;24.27;47.04
57068;BME280;43391;47.448;18.904;2022-09-09T13:54:10;99437.63;;;24.39;46.77
57068;BME280;43391;47.448;18.904;2022-09-09T13:56:37;99428.94;;;24.62;48.11
57068;BME280;43391;47.448;18.904;2022-09-09T13:59:05;99416.06;;;24.82;46.12
57068;BME280;43391;47.448;18.904;2022-09-09T14:01:31;99419.38;;;24.76;46.64
57068;BME280;43391;47.448;18.904;2022-09-09T14:03:58;99417.88;;;24.50;48.09
57068;BME280;43391;47.448;18.904;2022-09-09T14:06:24;99420.66;;;24.17;47.25
57068;BME280;43391;47.448;18.904;2022-09-09T14:08:50;99416.03;;;24.02;48.56
57068;BME280;43391;47.448;18.904;2022-09-09T14:11:16;99406.59;;;23.91;47.33
57068;BME280;43391;47.448;18.904;2022-09-09T14:13:42;99402.50;;;23.80;47.62
57068;BME280;43391;47.448;18.904;2022-09-09T14:16:07;99407.31;;;23.77;48.30
57068;BME280;43391;47.448;18.904;2022-09-09T14:18:32;99413.09;;;23.72;49.37
57068;BME280;43391;47.448;18.904;2022-09-09T14:20:59;99412.59;;;23.60;47.46
57068;BME280;43391;47.448;18.904;2022-09-09T14:23:24;99410.78;;;23.60;49.18
57068;BME280;43391;47.448;18.904;2022-09-09T14:25:50;99415.44;;;23.58;47.77
57068;BME280;43391;47.448;18.904;2022-09-09T14:28:16;99408.47;;;23.57;49.13
57068;BME280;43391;47.448;18.904;2022-09-09T14:30:42;99413.09;;;23.72;45.83
57068;BME280;43391;47.448;18.904;2022-09-09T14:33:10;99408.06;;;24.02;48.15
57068;BME280;43391;47.448;18.904;2022-09-09T14:35:36;99399.94;;;24.20;47.64
57068;BME280;43391;47.448;18.904;2022-09-09T14:38:03;99398.13;;;24.21;47.80
57068;BME280;43391;47.448;18.904;2022-09-09T14:40:29;99399.28;;;24.18;48.43
57068;BME280;43391;47.448;18.904;2022-09-09T14:42:55;99402.13;;;24.08;47.49
57068;BME280;43391;47.448;18.904;2022-09-09T14:45:22;99395.66;;;24.02;47.67
57068;BME280;43391;47.448;18.904;2022-09-09T14:47:49;99400.13;;;23.94;48.16
57068;BME280;43391;47.448;18.904;2022-09-09T14:50:15;99400.31;;;23.92;46.26
57068;BME280;43391;47.448;18.904;2022-09-09T14:52:40;99405.94;;;23.89;46.99
57068;BME280;43391;47.448;18.904;2022-09-09T14:55:06;99410.25;;;23.90;45.30
57068;BME280;43391;47.448;18.904;2022-09-09T14:57:32;99403.94;;;23.91;47.37
57068;BME280;43391;47.448;18.904;2022-09-09T14:59:57;99409.25;;;23.91;49.94